San Diego International Airport
KSAN : now visible

Airfield :











YOU CAN JOIN US ON...

 
LOGIN :

Register | Disclaimer

   EN    FR    IT 

 









Legend :    VFR   Marginal VFR   IFR   Intensive IFR   Very Intensive IFR
Visi :
Ceiling :
>= 8 km
>= 3000ft
5 to 8 km
1000 to 3000 ft
1500m to 5 km
500 to 1000 ft
800 to 1500m
200 to 500 ft
< 800m
< 200 ft
Symbols :   Thunderstorms  Fog  Heavy snow  Heavy precipitations  Wind > 20 kt






- Airport Elevation : 17 ft
- IATA code : SAN


KSAN - San Diego International

CURRENT METAR :
  • 281606Z 27005KT 10SM SCT014 21/14 A2996 RMK AO2 T02060144

EXPIRED METARs :
  • 281551Z 32005KT 10SM BKN013 20/14 A2996 RMK AO2 SLP143 T02000144
  • 281451Z 29004KT 10SM OVC013 19/14 A2996 RMK AO2 SLP144 T01890144 53007
  • 281351Z 32003KT 10SM OVC012 19/14 A2995 RMK AO2 SLP140 T01890144

TAF KSAN
Valid from the 28 at 15:00 until the 29 at 18:00 UTC


281456Z 2815/2918 VRB04KT P6SM OVC012
FM281800 28009KT P6SM FEW012
TEMPO 2900/2904 BKN010
FM290400 VRB04KT P6SM OVC012
KZLA FIR / North America



MET'MAP, your aeronautical weather chart ! - Copyright ORBIFLY December 2007 - Disclaimer

ORBIFLY MET'MAP TEAM :

Programming & Development : Alexandra Zaïnal
Concept & original design : Baudouin d'Aumeries
Assistance for programming : Marc-Olivier Méhu
Technical & hardware support : Manuel Goepfert

Contact : metmap@orbifly.com




SOURCES & CREDITS :

   NOAA       Earth
Advisory